KMCJ

Houston

Houston, Texas, USA
METAR KMCJ 212135Z AUTO 16008KT 120V190 8SM FEW022 BKN038 28/22 A2996 RMK A01
Observed Flight Rules
May-21 @ 21:35 UTC (20 hours ago) Visual Flight Rules
Wind Visibility Clouds
160° at 8 knots 8 miles
  • Few at 2,200' AGL
  • Broken at 3,800' AGL
Temperatures Readings
Current 28°C / 82°F
Dewpoint 22°C / 72°F
Humidity 70%
Altimeter 29.96" Hg
Pressure 1015 hPa
Elevation 69
METAR KMCJ 212135Z AUTO 16008KT 120V190 8SM FEW022 BKN038 28/22 A2996 RMK A01
Observed Flight Rules
May-21 @ 21:35 UTC
(20 hours ago)
VFR
Wind Visibility
160° at 8 knots 8 miles
Clouds
  • Few at 2,200' AGL
  • Broken at 3,800' AGL
Temperature Dewpoint
28°C / 82°F 22°C / 72°F
Humidity Altimeter Pressure
70% 29.96" Hg 1015 hPa